sensor_id;sensor_type;location;lat;lon;timestamp;temperature;humidity
7972;DHT22;4031;49.758;6.120;2024-03-08T00:01:08;-0.20;99.90
7972;DHT22;4031;49.758;6.120;2024-03-08T00:03:35;-0.20;99.90
7972;DHT22;4031;49.758;6.120;2024-03-08T00:06:00;-0.30;99.90
7972;DHT22;4031;49.758;6.120;2024-03-08T00:08:26;-0.30;99.90
7972;DHT22;4031;49.758;6.120;2024-03-08T00:10:52;-0.30;99.90
7972;DHT22;4031;49.758;6.120;2024-03-08T00:13:18;-0.40;99.90
7972;DHT22;4031;49.758;6.120;2024-03-08T00:15:44;-0.40;99.90
7972;DHT22;4031;49.758;6.120;2024-03-08T00:18:09;-0.50;99.90
7972;DHT22;4031;49.758;6.120;2024-03-08T00:20:36;-0.50;99.90
7972;DHT22;4031;49.758;6.120;2024-03-08T00:23:03;-0.60;99.90
7972;DHT22;4031;49.758;6.120;2024-03-08T00:25:29;-0.60;99.90
7972;DHT22;4031;49.758;6.120;2024-03-08T00:27:54;-0.60;99.90
7972;DHT22;4031;49.758;6.120;2024-03-08T00:30:25;-0.60;99.90
7972;DHT22;4031;49.758;6.120;2024-03-08T00:32:51;-0.60;99.90
7972;DHT22;4031;49.758;6.120;2024-03-08T00:35:17;-0.70;99.90
7972;DHT22;4031;49.758;6.120;2024-03-08T00:37:43;-0.70;99.90
7972;DHT22;4031;49.758;6.120;2024-03-08T00:40:12;-0.60;99.90
7972;DHT22;4031;49.758;6.120;2024-03-08T00:42:38;-0.70;99.90
7972;DHT22;4031;49.758;6.120;2024-03-08T00:45:05;-0.70;99.90
7972;DHT22;4031;49.758;6.120;2024-03-08T00:47:31;-0.70;99.90
7972;DHT22;4031;49.758;6.120;2024-03-08T00:49:57;-0.70;99.90
7972;DHT22;4031;49.758;6.120;2024-03-08T00:52:23;-0.70;99.90
7972;DHT22;4031;49.758;6.120;2024-03-08T00:54:50;-0.70;99.90
7972;DHT22;4031;49.758;6.120;2024-03-08T00:57:15;-0.70;99.90
7972;DHT22;4031;49.758;6.120;2024-03-08T00:59:41;-0.70;99.90
7972;DHT22;4031;49.758;6.120;2024-03-08T01:02:07;-0.80;99.90
7972;DHT22;4031;49.758;6.120;2024-03-08T01:04:36;-0.60;99.90
7972;DHT22;4031;49.758;6.120;2024-03-08T01:07:02;-0.70;99.90
7972;DHT22;4031;49.758;6.120;2024-03-08T01:09:28;-0.80;99.90
7972;DHT22;4031;49.758;6.120;2024-03-08T01:11:54;-0.80;99.90
7972;DHT22;4031;49.758;6.120;2024-03-08T01:14:21;-0.70;99.90
7972;DHT22;4031;49.758;6.120;2024-03-08T01:16:48;-0.80;99.90
7972;DHT22;4031;49.758;6.120;2024-03-08T01:19:15;-0.80;99.90
7972;DHT22;4031;49.758;6.120;2024-03-08T01:21:41;-0.70;99.90
7972;DHT22;4031;49.758;6.120;2024-03-08T01:24:07;-0.80;99.90
7972;DHT22;4031;49.758;6.120;2024-03-08T01:26:33;-0.80;99.90
7972;DHT22;4031;49.758;6.120;2024-03-08T01:29:02;-0.80;99.90
7972;DHT22;4031;49.758;6.120;2024-03-08T01:31:31;-0.80;99.90
7972;DHT22;4031;49.758;6.120;2024-03-08T01:33:58;-0.80;99.90
7972;DHT22;4031;49.758;6.120;2024-03-08T01:36:24;-0.90;99.90
7972;DHT22;4031;49.758;6.120;2024-03-08T01:38:51;-0.90;99.90
7972;DHT22;4031;49.758;6.120;2024-03-08T01:41:17;-1.00;99.90
7972;DHT22;4031;49.758;6.120;2024-03-08T01:43:43;-0.90;99.90
7972;DHT22;4031;49.758;6.120;2024-03-08T01:46:12;-0.90;99.90
7972;DHT22;4031;49.758;6.120;2024-03-08T01:48:42;-0.80;99.90
7972;DHT22;4031;49.758;6.120;2024-03-08T01:51:08;-0.90;99.90
7972;DHT22;4031;49.758;6.120;2024-03-08T01:53:35;-0.80;99.90
7972;DHT22;4031;49.758;6.120;2024-03-08T01:56:02;-0.70;99.90
7972;DHT22;4031;49.758;6.120;2024-03-08T01:58:29;-0.70;99.90
7972;DHT22;4031;49.758;6.120;2024-03-08T02:00:56;-0.60;99.90
7972;DHT22;4031;49.758;6.120;2024-03-08T02:03:25;-0.60;99.90
7972;DHT22;4031;49.758;6.120;2024-03-08T02:05:51;-0.70;99.90
7972;DHT22;4031;49.758;6.120;2024-03-08T02:08:17;-0.60;99.90
7972;DHT22;4031;49.758;6.120;2024-03-08T02:10:48;-0.50;99.90
7972;DHT22;4031;49.758;6.120;2024-03-08T02:13:14;-0.50;99.90
7972;DHT22;4031;49.758;6.120;2024-03-08T02:15:56;-0.50;99.90
7972;DHT22;4031;49.758;6.120;2024-03-08T02:18:27;-0.60;99.90
7972;DHT22;4031;49.758;6.120;2024-03-08T02:20:55;-0.50;99.90
7972;DHT22;4031;49.758;6.120;2024-03-08T02:23:23;-0.40;99.90
7972;DHT22;4031;49.758;6.120;2024-03-08T02:25:53;-0.30;99.90
7972;DHT22;4031;49.758;6.120;2024-03-08T02:28:20;-0.20;99.90
7972;DHT22;4031;49.758;6.120;2024-03-08T02:30:47;-0.30;99.90
7972;DHT22;4031;49.758;6.120;2024-03-08T02:33:17;-0.20;99.90
7972;DHT22;4031;49.758;6.120;2024-03-08T02:35:47;-0.10;99.90
7972;DHT22;4031;49.758;6.120;2024-03-08T02:38:18;-0.10;99.90
7972;DHT22;4031;49.758;6.120;2024-03-08T02:40:45;-0.10;99.90
7972;DHT22;4031;49.758;6.120;2024-03-08T02:43:14;-0.10;99.90
7972;DHT22;4031;49.758;6.120;2024-03-08T02:45:41;-0.20;99.90
7972;DHT22;4031;49.758;6.120;2024-03-08T02:48:10;-0.20;99.90
7972;DHT22;4031;49.758;6.120;2024-03-08T02:50:37;-0.20;99.90
7972;DHT22;4031;49.758;6.120;2024-03-08T02:53:05;-0.30;99.90
7972;DHT22;4031;49.758;6.120;2024-03-08T02:55:31;-0.40;99.90
7972;DHT22;4031;49.758;6.120;2024-03-08T02:58:01;-0.50;99.90
7972;DHT22;4031;49.758;6.120;2024-03-08T03:00:29;-0.60;99.90
7972;DHT22;4031;49.758;6.120;2024-03-08T03:02:57;-0.70;99.90
7972;DHT22;4031;49.758;6.120;2024-03-08T03:05:23;-0.70;99.90
7972;DHT22;4031;49.758;6.120;2024-03-08T03:07:50;-0.70;99.90
7972;DHT22;4031;49.758;6.120;2024-03-08T03:10:17;-0.80;99.90
7972;DHT22;4031;49.758;6.120;2024-03-08T03:12:44;-0.90;99.90
7972;DHT22;4031;49.758;6.120;2024-03-08T03:15:15;-0.90;99.90
7972;DHT22;4031;49.758;6.120;2024-03-08T03:17:48;-1.00;99.90
7972;DHT22;4031;49.758;6.120;2024-03-08T03:20:16;-1.00;99.90
7972;DHT22;4031;49.758;6.120;2024-03-08T03:22:51;-1.10;99.90
7972;DHT22;4031;49.758;6.120;2024-03-08T03:25:21;-1.20;99.90
7972;DHT22;4031;49.758;6.120;2024-03-08T03:27:53;-1.10;99.90
7972;DHT22;4031;49.758;6.120;2024-03-08T03:30:22;-1.00;99.90
7972;DHT22;4031;49.758;6.120;2024-03-08T03:32:51;-1.00;99.90
7972;DHT22;4031;49.758;6.120;2024-03-08T03:35:17;-1.00;99.90
7972;DHT22;4031;49.758;6.120;2024-03-08T03:37:44;-1.00;99.90
7972;DHT22;4031;49.758;6.120;2024-03-08T03:40:16;-1.10;99.90
7972;DHT22;4031;49.758;6.120;2024-03-08T03:42:44;-1.10;99.90
7972;DHT22;4031;49.758;6.120;2024-03-08T03:45:11;-1.00;99.90
7972;DHT22;4031;49.758;6.120;2024-03-08T03:47:36;-1.00;99.90
7972;DHT22;4031;49.758;6.120;2024-03-08T03:50:05;-1.00;99.90
7972;DHT22;4031;49.758;6.120;2024-03-08T03:52:31;-1.10;99.90
7972;DHT22;4031;49.758;6.120;2024-03-08T03:54:57;-1.20;99.90
7972;DHT22;4031;49.758;6.120;2024-03-08T03:57:23;-1.30;99.90
7972;DHT22;4031;49.758;6.120;2024-03-08T03:59:49;-1.40;99.90
7972;DHT22;4031;49.758;6.120;2024-03-08T04:02:17;-1.40;99.90
7972;DHT22;4031;49.758;6.120;2024-03-08T04:04:43;-1.60;99.90
7972;DHT22;4031;49.758;6.120;2024-03-08T04:07:11;-1.50;99.90
7972;DHT22;4031;49.758;6.120;2024-03-08T04:09:36;-1.50;99.90
7972;DHT22;4031;49.758;6.120;2024-03-08T04:12:02;-1.50;99.90
7972;DHT22;4031;49.758;6.120;2024-03-08T04:14:28;-1.50;99.90
7972;DHT22;4031;49.758;6.120;2024-03-08T04:16:54;-1.60;99.90
7972;DHT22;4031;49.758;6.120;2024-03-08T04:19:19;-1.50;99.90
7972;DHT22;4031;49.758;6.120;2024-03-08T04:21:45;-1.50;99.90
7972;DHT22;4031;49.758;6.120;2024-03-08T04:24:12;-1.60;99.90
7972;DHT22;4031;49.758;6.120;2024-03-08T04:26:38;-1.60;99.90
7972;DHT22;4031;49.758;6.120;2024-03-08T04:29:04;-1.70;99.90
7972;DHT22;4031;49.758;6.120;2024-03-08T04:31:29;-1.70;99.90
7972;DHT22;4031;49.758;6.120;2024-03-08T04:33:56;-1.70;99.90
7972;DHT22;4031;49.758;6.120;2024-03-08T04:36:22;-1.70;99.90
7972;DHT22;4031;49.758;6.120;2024-03-08T04:38:50;-1.60;99.90
7972;DHT22;4031;49.758;6.120;2024-03-08T04:41:17;-1.50;99.90
7972;DHT22;4031;49.758;6.120;2024-03-08T04:43:43;-1.50;99.90
7972;DHT22;4031;49.758;6.120;2024-03-08T04:46:09;-1.40;99.90
7972;DHT22;4031;49.758;6.120;2024-03-08T04:48:35;-1.30;99.90
7972;DHT22;4031;49.758;6.120;2024-03-08T04:51:03;-1.20;99.90
7972;DHT22;4031;49.758;6.120;2024-03-08T04:53:30;-1.20;99.90
7972;DHT22;4031;49.758;6.120;2024-03-08T04:55:58;-1.10;99.90
7972;DHT22;4031;49.758;6.120;2024-03-08T04:58:24;-1.10;99.90
7972;DHT22;4031;49.758;6.120;2024-03-08T05:00:50;-1.00;99.90
7972;DHT22;4031;49.758;6.120;2024-03-08T05:03:16;-1.00;99.90
7972;DHT22;4031;49.758;6.120;2024-03-08T05:05:42;-0.90;99.90
7972;DHT22;4031;49.758;6.120;2024-03-08T05:08:07;-0.90;99.90
7972;DHT22;4031;49.758;6.120;2024-03-08T05:10:33;-0.90;99.90
7972;DHT22;4031;49.758;6.120;2024-03-08T05:12:59;-0.90;99.90
7972;DHT22;4031;49.758;6.120;2024-03-08T05:15:25;-0.80;99.90
7972;DHT22;4031;49.758;6.120;2024-03-08T05:17:50;-0.70;99.90
7972;DHT22;4031;49.758;6.120;2024-03-08T05:20:16;-0.60;99.90
7972;DHT22;4031;49.758;6.120;2024-03-08T05:22:42;-0.50;99.90
7972;DHT22;4031;49.758;6.120;2024-03-08T05:25:08;-0.40;99.90
7972;DHT22;4031;49.758;6.120;2024-03-08T05:27:35;-0.40;99.90
7972;DHT22;4031;49.758;6.120;2024-03-08T05:30:03;-0.30;99.90
7972;DHT22;4031;49.758;6.120;2024-03-08T05:32:31;-0.20;99.90
7972;DHT22;4031;49.758;6.120;2024-03-08T05:34:57;-0.30;99.90
7972;DHT22;4031;49.758;6.120;2024-03-08T05:37:23;-0.30;99.90
7972;DHT22;4031;49.758;6.120;2024-03-08T05:39:49;-0.30;99.90
7972;DHT22;4031;49.758;6.120;2024-03-08T05:42:14;-0.40;99.90
7972;DHT22;4031;49.758;6.120;2024-03-08T05:44:40;-0.40;99.90
7972;DHT22;4031;49.758;6.120;2024-03-08T05:47:06;-0.40;99.90
7972;DHT22;4031;49.758;6.120;2024-03-08T05:49:32;-0.40;99.90
7972;DHT22;4031;49.758;6.120;2024-03-08T05:51:59;-0.50;99.90
7972;DHT22;4031;49.758;6.120;2024-03-08T05:54:25;-0.60;99.90
7972;DHT22;4031;49.758;6.120;2024-03-08T05:56:52;-0.60;99.90
7972;DHT22;4031;49.758;6.120;2024-03-08T05:59:18;-0.70;99.90
7972;DHT22;4031;49.758;6.120;2024-03-08T06:01:44;-0.80;99.90
7972;DHT22;4031;49.758;6.120;2024-03-08T06:04:11;-0.80;99.90
7972;DHT22;4031;49.758;6.120;2024-03-08T06:06:37;-0.90;99.90
7972;DHT22;4031;49.758;6.120;2024-03-08T06:09:03;-0.90;99.90
7972;DHT22;4031;49.758;6.120;2024-03-08T06:11:36;-0.90;99.90
7972;DHT22;4031;49.758;6.120;2024-03-08T06:14:02;-1.00;99.90
7972;DHT22;4031;49.758;6.120;2024-03-08T06:16:28;-0.90;99.90
7972;DHT22;4031;49.758;6.120;2024-03-08T06:18:57;-0.80;99.90
7972;DHT22;4031;49.758;6.120;2024-03-08T06:21:24;-0.80;99.90
7972;DHT22;4031;49.758;6.120;2024-03-08T06:23:54;-0.80;99.90
7972;DHT22;4031;49.758;6.120;2024-03-08T06:26:24;-0.80;99.90
7972;DHT22;4031;49.758;6.120;2024-03-08T06:28:50;-0.80;99.90
7972;DHT22;4031;49.758;6.120;2024-03-08T06:31:16;-0.90;99.90
7972;DHT22;4031;49.758;6.120;2024-03-08T06:33:42;-0.90;99.90
7972;DHT22;4031;49.758;6.120;2024-03-08T06:36:09;-1.00;99.90
7972;DHT22;4031;49.758;6.120;2024-03-08T06:38:37;-1.00;99.90
7972;DHT22;4031;49.758;6.120;2024-03-08T06:41:11;-0.90;99.90
7972;DHT22;4031;49.758;6.120;2024-03-08T06:43:46;-0.80;99.90
7972;DHT22;4031;49.758;6.120;2024-03-08T06:46:15;-0.80;99.90
7972;DHT22;4031;49.758;6.120;2024-03-08T06:48:41;-0.80;99.90
7972;DHT22;4031;49.758;6.120;2024-03-08T06:51:07;-0.70;99.90
7972;DHT22;4031;49.758;6.120;2024-03-08T06:53:33;-0.70;99.90
7972;DHT22;4031;49.758;6.120;2024-03-08T06:56:01;-0.70;99.90
7972;DHT22;4031;49.758;6.120;2024-03-08T06:58:27;-0.60;99.90
7972;DHT22;4031;49.758;6.120;2024-03-08T07:00:53;-0.60;99.90
7972;DHT22;4031;49.758;6.120;2024-03-08T07:03:23;-0.50;99.90
7972;DHT22;4031;49.758;6.120;2024-03-08T07:05:49;-0.40;99.90
7972;DHT22;4031;49.758;6.120;2024-03-08T07:08:15;-0.30;99.90
7972;DHT22;4031;49.758;6.120;2024-03-08T07:10:42;-0.30;99.90
7972;DHT22;4031;49.758;6.120;2024-03-08T07:13:08;-0.10;99.90
7972;DHT22;4031;49.758;6.120;2024-03-08T07:15:34;-0.10;99.90
7972;DHT22;4031;49.758;6.120;2024-03-08T07:18:01;0.00;99.90
7972;DHT22;4031;49.758;6.120;2024-03-08T07:20:27;0.00;99.90
7972;DHT22;4031;49.758;6.120;2024-03-08T07:22:54;0.10;99.90
7972;DHT22;4031;49.758;6.120;2024-03-08T07:25:20;0.20;99.90
7972;DHT22;4031;49.758;6.120;2024-03-08T07:27:55;0.30;99.90
7972;DHT22;4031;49.758;6.120;2024-03-08T07:30:23;0.40;99.90
7972;DHT22;4031;49.758;6.120;2024-03-08T07:33:08;0.50;99.90
7972;DHT22;4031;49.758;6.120;2024-03-08T07:35:40;0.50;99.90
7972;DHT22;4031;49.758;6.120;2024-03-08T07:38:09;0.70;99.90
7972;DHT22;4031;49.758;6.120;2024-03-08T07:40:39;1.00;99.90
7972;DHT22;4031;49.758;6.120;2024-03-08T07:43:09;1.30;99.90
7972;DHT22;4031;49.758;6.120;2024-03-08T07:45:37;1.80;99.90
7972;DHT22;4031;49.758;6.120;2024-03-08T07:48:04;2.20;99.90
7972;DHT22;4031;49.758;6.120;2024-03-08T07:50:38;2.60;99.90
7972;DHT22;4031;49.758;6.120;2024-03-08T07:53:05;3.10;99.90
7972;DHT22;4031;49.758;6.120;2024-03-08T07:55:33;3.40;99.90
7972;DHT22;4031;49.758;6.120;2024-03-08T07:57:59;3.60;99.90
7972;DHT22;4031;49.758;6.120;2024-03-08T08:00:25;3.90;99.90
7972;DHT22;4031;49.758;6.120;2024-03-08T08:02:55;4.20;99.90
7972;DHT22;4031;49.758;6.120;2024-03-08T08:05:21;4.40;99.90
7972;DHT22;4031;49.758;6.120;2024-03-08T08:07:47;4.70;99.90
7972;DHT22;4031;49.758;6.120;2024-03-08T08:10:13;4.80;99.90
7972;DHT22;4031;49.758;6.120;2024-03-08T08:12:44;5.00;99.90
7972;DHT22;4031;49.758;6.120;2024-03-08T08:15:10;5.20;99.90
7972;DHT22;4031;49.758;6.120;2024-03-08T08:17:36;5.40;99.90
7972;DHT22;4031;49.758;6.120;2024-03-08T08:20:02;5.70;99.90
7972;DHT22;4031;49.758;6.120;2024-03-08T08:22:31;6.00;99.90
7972;DHT22;4031;49.758;6.120;2024-03-08T08:24:56;6.40;99.90
7972;DHT22;4031;49.758;6.120;2024-03-08T08:27:22;6.60;99.90
7972;DHT22;4031;49.758;6.120;2024-03-08T08:29:48;7.00;99.90
7972;DHT22;4031;49.758;6.120;2024-03-08T08:32:15;7.50;99.90
7972;DHT22;4031;49.758;6.120;2024-03-08T08:34:41;7.80;99.90
7972;DHT22;4031;49.758;6.120;2024-03-08T08:37:07;8.40;99.90
7972;DHT22;4031;49.758;6.120;2024-03-08T08:39:35;9.00;99.90
7972;DHT22;4031;49.758;6.120;2024-03-08T08:42:01;9.50;99.90
7972;DHT22;4031;49.758;6.120;2024-03-08T08:44:29;9.90;99.90
7972;DHT22;4031;49.758;6.120;2024-03-08T08:46:57;10.40;99.90
7972;DHT22;4031;49.758;6.120;2024-03-08T08:49:24;11.20;99.90
7972;DHT22;4031;49.758;6.120;2024-03-08T08:51:51;12.00;99.90
7972;DHT22;4031;49.758;6.120;2024-03-08T08:54:17;12.80;99.90
7972;DHT22;4031;49.758;6.120;2024-03-08T08:56:44;13.30;99.90
7972;DHT22;4031;49.758;6.120;2024-03-08T08:59:10;13.70;99.90
7972;DHT22;4031;49.758;6.120;2024-03-08T09:01:40;14.30;99.90
7972;DHT22;4031;49.758;6.120;2024-03-08T09:04:06;14.90;99.90
7972;DHT22;4031;49.758;6.120;2024-03-08T09:06:33;15.10;99.90
7972;DHT22;4031;49.758;6.120;2024-03-08T09:08:58;15.60;99.90
7972;DHT22;4031;49.758;6.120;2024-03-08T09:11:24;15.80;99.90
7972;DHT22;4031;49.758;6.120;2024-03-08T09:13:53;15.90;99.90
7972;DHT22;4031;49.758;6.120;2024-03-08T09:16:18;16.00;99.90
7972;DHT22;4031;49.758;6.120;2024-03-08T09:18:44;16.20;99.90
7972;DHT22;4031;49.758;6.120;2024-03-08T09:21:10;16.20;99.90
7972;DHT22;4031;49.758;6.120;2024-03-08T09:23:36;16.20;99.90
7972;DHT22;4031;49.758;6.120;2024-03-08T09:26:02;16.10;99.90
7972;DHT22;4031;49.758;6.120;2024-03-08T09:28:29;16.10;99.90
7972;DHT22;4031;49.758;6.120;2024-03-08T09:30:55;16.20;99.90
7972;DHT22;4031;49.758;6.120;2024-03-08T09:33:21;16.10;99.90
7972;DHT22;4031;49.758;6.120;2024-03-08T09:35:47;16.30;99.90
7972;DHT22;4031;49.758;6.120;2024-03-08T09:38:14;16.80;99.90
7972;DHT22;4031;49.758;6.120;2024-03-08T09:40:43;17.40;99.90
7972;DHT22;4031;49.758;6.120;2024-03-08T09:43:12;17.60;99.90
7972;DHT22;4031;49.758;6.120;2024-03-08T09:45:38;17.70;99.90
7972;DHT22;4031;49.758;6.120;2024-03-08T09:48:13;17.70;99.90
7972;DHT22;4031;49.758;6.120;2024-03-08T09:50:42;17.80;99.90
7972;DHT22;4031;49.758;6.120;2024-03-08T09:53:08;18.20;99.90
7972;DHT22;4031;49.758;6.120;2024-03-08T09:55:38;18.70;99.90
7972;DHT22;4031;49.758;6.120;2024-03-08T09:58:15;18.80;99.90
7972;DHT22;4031;49.758;6.120;2024-03-08T10:00:56;18.70;99.90
7972;DHT22;4031;49.758;6.120;2024-03-08T10:03:23;18.30;99.90
7972;DHT22;4031;49.758;6.120;2024-03-08T10:05:51;18.40;99.90
7972;DHT22;4031;49.758;6.120;2024-03-08T10:08:17;18.40;99.90
7972;DHT22;4031;49.758;6.120;2024-03-08T10:10:43;18.50;99.90
7972;DHT22;4031;49.758;6.120;2024-03-08T10:13:10;18.20;99.90
7972;DHT22;4031;49.758;6.120;2024-03-08T10:15:39;17.70;99.90
7972;DHT22;4031;49.758;6.120;2024-03-08T10:18:06;17.30;99.90
7972;DHT22;4031;49.758;6.120;2024-03-08T10:20:32;17.10;99.90
7972;DHT22;4031;49.758;6.120;2024-03-08T10:23:02;16.50;99.90
7972;DHT22;4031;49.758;6.120;2024-03-08T10:25:30;16.30;99.90
7972;DHT22;4031;49.758;6.120;2024-03-08T10:27:57;16.10;99.90
7972;DHT22;4031;49.758;6.120;2024-03-08T10:30:23;16.00;99.90
7972;DHT22;4031;49.758;6.120;2024-03-08T10:32:49;16.20;99.90
7972;DHT22;4031;49.758;6.120;2024-03-08T10:35:15;16.00;99.90
7972;DHT22;4031;49.758;6.120;2024-03-08T10:37:47;15.90;99.90
7972;DHT22;4031;49.758;6.120;2024-03-08T10:40:18;16.10;99.90
7972;DHT22;4031;49.758;6.120;2024-03-08T10:42:52;15.90;99.90
7972;DHT22;4031;49.758;6.120;2024-03-08T10:48:29;16.20;99.90
7972;DHT22;4031;49.758;6.120;2024-03-08T10:51:04;16.50;99.90
7972;DHT22;4031;49.758;6.120;2024-03-08T10:53:30;16.70;99.90
7972;DHT22;4031;49.758;6.120;2024-03-08T10:55:57;16.60;99.90
7972;DHT22;4031;49.758;6.120;2024-03-08T10:58:25;16.70;99.90
7972;DHT22;4031;49.758;6.120;2024-03-08T11:00:55;16.80;99.90
7972;DHT22;4031;49.758;6.120;2024-03-08T11:08:40;16.90;99.90
7972;DHT22;4031;49.758;6.120;2024-03-08T11:13:53;17.70;99.90
7972;DHT22;4031;49.758;6.120;2024-03-08T11:18:53;17.90;99.90
7972;DHT22;4031;49.758;6.120;2024-03-08T11:21:32;18.10;99.90
7972;DHT22;4031;49.758;6.120;2024-03-08T11:24:13;17.60;99.90
7972;DHT22;4031;49.758;6.120;2024-03-08T11:26:40;17.30;99.90
7972;DHT22;4031;49.758;6.120;2024-03-08T11:32:26;17.40;99.90
7972;DHT22;4031;49.758;6.120;2024-03-08T11:34:53;17.40;99.90
7972;DHT22;4031;49.758;6.120;2024-03-08T11:37:20;17.60;99.90
7972;DHT22;4031;49.758;6.120;2024-03-08T11:39:55;17.10;99.90
7972;DHT22;4031;49.758;6.120;2024-03-08T11:42:30;17.10;99.90
7972;DHT22;4031;49.758;6.120;2024-03-08T11:44:56;17.20;99.90
7972;DHT22;4031;49.758;6.120;2024-03-08T11:47:23;17.10;99.90
7972;DHT22;4031;49.758;6.120;2024-03-08T11:49:49;16.90;99.90
7972;DHT22;4031;49.758;6.120;2024-03-08T11:52:15;16.90;99.90
7972;DHT22;4031;49.758;6.120;2024-03-08T11:54:43;17.00;99.90
7972;DHT22;4031;49.758;6.120;2024-03-08T11:57:18;17.00;99.90
7972;DHT22;4031;49.758;6.120;2024-03-08T11:59:51;16.60;99.90
7972;DHT22;4031;49.758;6.120;2024-03-08T12:02:20;16.00;99.90
7972;DHT22;4031;49.758;6.120;2024-03-08T12:04:46;16.00;99.90
7972;DHT22;4031;49.758;6.120;2024-03-08T12:07:12;16.10;99.90
7972;DHT22;4031;49.758;6.120;2024-03-08T12:09:42;16.10;99.90
7972;DHT22;4031;49.758;6.120;2024-03-08T12:12:12;16.20;99.90
7972;DHT22;4031;49.758;6.120;2024-03-08T12:14:39;16.00;99.90
7972;DHT22;4031;49.758;6.120;2024-03-08T12:17:09;15.60;99.90
7972;DHT22;4031;49.758;6.120;2024-03-08T12:19:36;15.40;99.90
7972;DHT22;4031;49.758;6.120;2024-03-08T12:22:09;15.50;99.90
7972;DHT22;4031;49.758;6.120;2024-03-08T12:24:36;15.10;99.90
7972;DHT22;4031;49.758;6.120;2024-03-08T12:27:17;15.00;99.90
7972;DHT22;4031;49.758;6.120;2024-03-08T12:29:44;15.00;99.90
7972;DHT22;4031;49.758;6.120;2024-03-08T12:32:12;14.70;99.90
7972;DHT22;4031;49.758;6.120;2024-03-08T12:34:38;15.00;99.90
7972;DHT22;4031;49.758;6.120;2024-03-08T12:37:03;15.30;99.90
7972;DHT22;4031;49.758;6.120;2024-03-08T12:39:32;15.40;99.90
7972;DHT22;4031;49.758;6.120;2024-03-08T12:41:59;15.30;99.90
7972;DHT22;4031;49.758;6.120;2024-03-08T12:44:25;15.30;99.90
7972;DHT22;4031;49.758;6.120;2024-03-08T12:46:51;15.70;99.90
7972;DHT22;4031;49.758;6.120;2024-03-08T12:49:19;15.70;99.90
7972;DHT22;4031;49.758;6.120;2024-03-08T12:51:48;15.80;99.90
7972;DHT22;4031;49.758;6.120;2024-03-08T12:54:14;15.80;99.90
7972;DHT22;4031;49.758;6.120;2024-03-08T12:56:40;15.80;99.90
7972;DHT22;4031;49.758;6.120;2024-03-08T12:59:07;15.70;99.90
7972;DHT22;4031;49.758;6.120;2024-03-08T13:01:34;15.70;99.90
7972;DHT22;4031;49.758;6.120;2024-03-08T13:04:02;15.90;99.90
7972;DHT22;4031;49.758;6.120;2024-03-08T13:06:29;15.90;99.90
7972;DHT22;4031;49.758;6.120;2024-03-08T13:08:57;15.70;99.90
7972;DHT22;4031;49.758;6.120;2024-03-08T13:11:31;15.90;99.90
7972;DHT22;4031;49.758;6.120;2024-03-08T13:14:04;16.00;99.90
7972;DHT22;4031;49.758;6.120;2024-03-08T13:16:33;16.10;99.90
7972;DHT22;4031;49.758;6.120;2024-03-08T13:19:00;16.10;99.90
7972;DHT22;4031;49.758;6.120;2024-03-08T13:21:26;16.10;99.90
7972;DHT22;4031;49.758;6.120;2024-03-08T13:23:52;16.20;99.90
7972;DHT22;4031;49.758;6.120;2024-03-08T13:26:18;16.00;99.90
7972;DHT22;4031;49.758;6.120;2024-03-08T13:28:50;16.00;99.90
7972;DHT22;4031;49.758;6.120;2024-03-08T13:31:22;16.20;99.90
7972;DHT22;4031;49.758;6.120;2024-03-08T13:33:48;16.30;99.90
7972;DHT22;4031;49.758;6.120;2024-03-08T13:36:16;16.70;99.90
7972;DHT22;4031;49.758;6.120;2024-03-08T13:38:48;17.00;99.90
7972;DHT22;4031;49.758;6.120;2024-03-08T13:41:15;17.40;99.90
7972;DHT22;4031;49.758;6.120;2024-03-08T13:43:42;17.60;99.90
7972;DHT22;4031;49.758;6.120;2024-03-08T13:46:12;17.80;99.90
7972;DHT22;4031;49.758;6.120;2024-03-08T13:48:38;17.60;99.90
7972;DHT22;4031;49.758;6.120;2024-03-08T13:51:04;17.50;99.90
7972;DHT22;4031;49.758;6.120;2024-03-08T13:53:35;17.30;99.90
7972;DHT22;4031;49.758;6.120;2024-03-08T13:56:05;17.30;99.90
7972;DHT22;4031;49.758;6.120;2024-03-08T13:58:31;17.30;99.90
7972;DHT22;4031;49.758;6.120;2024-03-08T14:00:57;17.60;99.90
7972;DHT22;4031;49.758;6.120;2024-03-08T14:03:22;17.80;99.90
7972;DHT22;4031;49.758;6.120;2024-03-08T14:05:51;18.00;99.90
7972;DHT22;4031;49.758;6.120;2024-03-08T14:08:17;18.30;99.90
7972;DHT22;4031;49.758;6.120;2024-03-08T14:10:43;18.20;99.90
7972;DHT22;4031;49.758;6.120;2024-03-08T14:13:12;18.10;99.90
7972;DHT22;4031;49.758;6.120;2024-03-08T14:15:39;17.80;99.90
7972;DHT22;4031;49.758;6.120;2024-03-08T14:18:08;17.70;99.90
7972;DHT22;4031;49.758;6.120;2024-03-08T14:20:34;17.50;99.90
7972;DHT22;4031;49.758;6.120;2024-03-08T14:22:59;17.50;99.90
7972;DHT22;4031;49.758;6.120;2024-03-08T14:25:28;17.80;99.90
7972;DHT22;4031;49.758;6.120;2024-03-08T14:27:55;18.10;99.90
7972;DHT22;4031;49.758;6.120;2024-03-08T14:30:23;18.10;99.90
7972;DHT22;4031;49.758;6.120;2024-03-08T14:33:05;18.00;99.90
7972;DHT22;4031;49.758;6.120;2024-03-08T14:35:31;17.80;99.90
7972;DHT22;4031;49.758;6.120;2024-03-08T14:37:57;17.60;99.90
7972;DHT22;4031;49.758;6.120;2024-03-08T14:40:24;17.60;99.90
7972;DHT22;4031;49.758;6.120;2024-03-08T14:42:51;17.70;99.90
7972;DHT22;4031;49.758;6.120;2024-03-08T14:45:17;17.70;99.90
7972;DHT22;4031;49.758;6.120;2024-03-08T14:47:50;17.30;99.90
7972;DHT22;4031;49.758;6.120;2024-03-08T14:50:23;17.10;99.90
7972;DHT22;4031;49.758;6.120;2024-03-08T14:52:49;17.00;99.90
7972;DHT22;4031;49.758;6.120;2024-03-08T14:55:16;17.10;99.90
7972;DHT22;4031;49.758;6.120;2024-03-08T14:57:45;17.20;99.90
7972;DHT22;4031;49.758;6.120;2024-03-08T15:00:12;17.10;99.90
7972;DHT22;4031;49.758;6.120;2024-03-08T15:02:59;17.20;99.90
7972;DHT22;4031;49.758;6.120;2024-03-08T15:05:27;17.40;99.90
7972;DHT22;4031;49.758;6.120;2024-03-08T15:07:54;17.50;99.90
7972;DHT22;4031;49.758;6.120;2024-03-08T15:10:20;17.40;99.90
7972;DHT22;4031;49.758;6.120;2024-03-08T15:12:50;17.40;99.90
7972;DHT22;4031;49.758;6.120;2024-03-08T15:15:18;17.10;99.90
7972;DHT22;4031;49.758;6.120;2024-03-08T15:17:44;17.10;99.90
7972;DHT22;4031;49.758;6.120;2024-03-08T15:20:13;17.10;99.90
7972;DHT22;4031;49.758;6.120;2024-03-08T15:22:43;16.90;99.90
7972;DHT22;4031;49.758;6.120;2024-03-08T15:25:10;16.60;99.90
7972;DHT22;4031;49.758;6.120;2024-03-08T15:27:42;16.00;99.90
7972;DHT22;4031;49.758;6.120;2024-03-08T15:30:08;15.40;99.90
7972;DHT22;4031;49.758;6.120;2024-03-08T15:32:43;15.00;99.90
7972;DHT22;4031;49.758;6.120;2024-03-08T15:35:10;14.50;99.90
7972;DHT22;4031;49.758;6.120;2024-03-08T15:37:40;14.00;99.90
7972;DHT22;4031;49.758;6.120;2024-03-08T15:40:10;13.50;99.90
7972;DHT22;4031;49.758;6.120;2024-03-08T15:42:55;13.20;99.90
7972;DHT22;4031;49.758;6.120;2024-03-08T15:45:22;13.00;99.90
7972;DHT22;4031;49.758;6.120;2024-03-08T15:47:52;12.90;99.90
7972;DHT22;4031;49.758;6.120;2024-03-08T15:50:18;12.80;99.90
7972;DHT22;4031;49.758;6.120;2024-03-08T15:52:48;12.60;99.90
7972;DHT22;4031;49.758;6.120;2024-03-08T15:55:16;12.40;99.90
7972;DHT22;4031;49.758;6.120;2024-03-08T15:57:48;12.40;99.90
7972;DHT22;4031;49.758;6.120;2024-03-08T16:00:19;12.40;99.90
7972;DHT22;4031;49.758;6.120;2024-03-08T16:03:23;12.50;99.90
7972;DHT22;4031;49.758;6.120;2024-03-08T16:05:49;12.70;99.90
7972;DHT22;4031;49.758;6.120;2024-03-08T16:08:18;12.70;99.90
7972;DHT22;4031;49.758;6.120;2024-03-08T16:10:52;12.60;99.90
7972;DHT22;4031;49.758;6.120;2024-03-08T16:13:24;12.20;99.90
7972;DHT22;4031;49.758;6.120;2024-03-08T16:15:55;12.00;99.90
7972;DHT22;4031;49.758;6.120;2024-03-08T16:18:22;11.60;99.90
7972;DHT22;4031;49.758;6.120;2024-03-08T16:20:51;11.40;99.90
7972;DHT22;4031;49.758;6.120;2024-03-08T16:23:18;11.10;99.90